createdAt,value
2023-04-16T00:02:22.860Z,87.72
2023-04-16T00:04:51.345Z,87.76
2023-04-16T00:07:19.644Z,87.76
2023-04-16T00:09:52.994Z,88.00
2023-04-16T00:12:21.772Z,88.17
2023-04-16T00:15:09.095Z,88.19
2023-04-16T00:17:37.498Z,88.33
2023-04-16T00:20:06.937Z,88.28
2023-04-16T00:22:35.358Z,88.47
2023-04-16T00:25:04.155Z,88.61
2023-04-16T00:30:47.307Z,88.91
2023-04-16T00:33:17.005Z,89.09
2023-04-16T00:35:47.130Z,89.18
2023-04-16T00:38:16.079Z,89.12
2023-04-16T00:40:44.556Z,89.22
2023-04-16T00:46:51.400Z,89.54
2023-04-16T00:49:46.492Z,89.79
2023-04-16T00:52:15.005Z,89.99
2023-04-16T00:54:43.408Z,90.23
2023-04-16T00:57:14.852Z,90.37
2023-04-16T00:59:43.370Z,90.53
2023-04-16T01:02:12.977Z,90.68
2023-04-16T01:04:42.880Z,90.86
2023-04-16T01:07:11.302Z,91.07
2023-04-16T01:09:39.591Z,91.31
2023-04-16T01:12:07.897Z,91.47
2023-04-16T01:14:36.750Z,91.55
2023-04-16T01:17:06.037Z,91.68
2023-04-16T01:20:00.912Z,91.76
2023-04-16T01:22:29.335Z,91.96
2023-04-16T01:24:58.106Z,91.99
2023-04-16T01:27:27.134Z,92.03
2023-04-16T01:29:56.410Z,92.10
2023-04-16T01:32:24.841Z,92.11
2023-04-16T01:34:53.174Z,92.12
2023-04-16T01:37:21.496Z,92.25
2023-04-16T01:39:49.843Z,92.32
2023-04-16T01:42:18.181Z,92.27
2023-04-16T01:44:47.879Z,92.28
2023-04-16T01:47:16.329Z,92.31
2023-04-16T01:49:45.711Z,92.36
2023-04-16T01:52:14.129Z,92.10
2023-04-16T01:54:42.432Z,91.97
2023-04-16T01:57:11.253Z,92.11
2023-04-16T01:59:39.946Z,92.26
2023-04-16T02:02:14.832Z,92.36
2023-04-16T02:04:47.237Z,92.62
2023-04-16T02:07:15.690Z,92.91
2023-04-16T02:09:44.294Z,93.06
2023-04-16T02:12:12.651Z,93.22
2023-04-16T02:14:41.990Z,93.26
2023-04-16T02:17:10.675Z,93.35
2023-04-16T02:19:39.025Z,93.49
2023-04-16T02:22:07.507Z,93.55
2023-04-16T02:24:36.003Z,93.82
2023-04-16T02:27:04.353Z,93.98
2023-04-16T02:29:32.645Z,94.15
2023-04-16T02:32:01.048Z,94.36
2023-04-16T02:34:29.509Z,94.65
2023-04-16T02:36:58.427Z,94.70
2023-04-16T02:39:27.176Z,95.03
2023-04-16T02:41:56.247Z,95.17
2023-04-16T02:44:24.599Z,95.43
2023-04-16T02:46:52.890Z,95.39
2023-04-16T02:49:21.227Z,95.30
2023-04-16T02:51:49.604Z,95.30
2023-04-16T02:54:18.019Z,95.58
2023-04-16T02:56:46.488Z,95.68
2023-04-16T02:59:14.802Z,95.69
2023-04-16T03:01:43.887Z,95.61
2023-04-16T03:04:12.311Z,95.72
2023-04-16T03:06:41.084Z,95.99
2023-04-16T03:09:09.541Z,96.24
2023-04-16T03:11:38.088Z,96.45
2023-04-16T03:14:06.441Z,96.57
2023-04-16T03:16:34.855Z,96.61
2023-04-16T03:19:03.127Z,96.85
2023-04-16T03:21:31.822Z,96.95
2023-04-16T03:24:00.132Z,96.93
2023-04-16T03:26:28.537Z,97.04
2023-04-16T03:28:56.832Z,97.01
2023-04-16T03:31:28.021Z,97.36
2023-04-16T03:33:56.654Z,97.58
2023-04-16T03:36:26.637Z,97.32
2023-04-16T03:38:54.962Z,97.37
2023-04-16T03:41:23.266Z,97.23
2023-04-16T03:43:51.620Z,97.11
2023-04-16T03:46:20.073Z,97.07
2023-04-16T03:48:48.386Z,97.09
2023-04-16T03:51:16.750Z,97.02
2023-04-16T03:53:45.275Z,97.12
2023-04-16T03:56:13.596Z,97.40
2023-04-16T03:58:41.992Z,97.45
2023-04-16T04:01:10.366Z,97.61
2023-04-16T04:03:38.972Z,97.81
2023-04-16T04:06:08.903Z,97.75
2023-04-16T04:08:37.348Z,97.76
2023-04-16T04:11:05.688Z,97.97
2023-04-16T04:13:33.999Z,98.16
2023-04-16T04:16:02.419Z,98.51
2023-04-16T04:18:30.774Z,98.57
2023-04-16T04:20:59.137Z,98.72
2023-04-16T04:23:27.522Z,98.80
2023-04-16T04:25:55.862Z,98.80
2023-04-16T04:28:24.184Z,99.13
2023-04-16T04:30:52.481Z,99.17
2023-04-16T04:33:20.818Z,99.40
2023-04-16T04:35:49.346Z,99.47
2023-04-16T04:38:20.087Z,99.72
2023-04-16T04:40:49.006Z,99.73
2023-04-16T04:43:17.349Z,99.89
2023-04-16T04:45:46.364Z,99.97
2023-04-16T04:48:15.577Z,100.00
2023-04-16T04:50:45.575Z,100.00
2023-04-16T04:53:15.002Z,100.00
2023-04-16T04:55:44.753Z,100.00
2023-04-16T04:58:13.145Z,99.91
2023-04-16T05:00:42.854Z,99.91
2023-04-16T05:03:12.707Z,99.76
2023-04-16T05:05:41.597Z,99.61
2023-04-16T05:08:09.937Z,99.65
2023-04-16T05:10:38.290Z,99.73
2023-04-16T05:13:06.616Z,99.86
2023-04-16T05:15:35.001Z,99.88
2023-04-16T05:18:03.491Z,99.85
2023-04-16T05:20:31.894Z,99.79
2023-04-16T05:23:00.246Z,99.76
2023-04-16T05:25:28.649Z,99.91
2023-04-16T05:27:57.006Z,99.91
2023-04-16T05:30:25.596Z,100.00
2023-04-16T05:32:53.936Z,99.96
2023-04-16T05:35:22.480Z,100.00
2023-04-16T05:37:50.852Z,99.99
2023-04-16T05:40:19.253Z,100.00
2023-04-16T05:42:47.669Z,99.99
2023-04-16T05:45:16.143Z,100.00
2023-04-16T05:47:46.220Z,99.95
2023-04-16T05:50:14.758Z,99.83
2023-04-16T05:52:43.111Z,99.88
2023-04-16T05:55:11.549Z,99.94
2023-04-16T05:57:39.961Z,99.95
2023-04-16T06:00:08.964Z,99.99
2023-04-16T06:02:37.810Z,100.00
2023-04-16T06:05:06.624Z,100.00
2023-04-16T06:07:34.982Z,100.00
2023-04-16T06:10:03.378Z,100.00
2023-04-16T06:12:31.785Z,100.00
2023-04-16T06:15:01.451Z,100.00
2023-04-16T06:17:29.788Z,100.00
2023-04-16T06:19:58.111Z,100.00
2023-04-16T06:22:26.659Z,100.00
2023-04-16T06:24:56.836Z,100.00
2023-04-16T06:27:25.993Z,100.00
2023-04-16T06:29:54.325Z,100.00
2023-04-16T06:32:22.794Z,99.87
2023-04-16T06:34:51.532Z,99.99
2023-04-16T06:37:20.015Z,100.00
2023-04-16T06:39:48.500Z,100.00
2023-04-16T06:42:17.530Z,100.00
2023-04-16T06:44:55.321Z,99.81
2023-04-16T06:47:23.705Z,99.12
2023-04-16T06:49:52.420Z,99.13
2023-04-16T06:52:20.871Z,99.02
2023-04-16T06:54:49.295Z,98.87
2023-04-16T06:57:17.682Z,98.56
2023-04-16T06:59:45.999Z,98.32
2023-04-16T07:02:14.508Z,98.11
2023-04-16T07:04:42.949Z,98.06
2023-04-16T07:07:11.402Z,97.63
2023-04-16T07:09:39.721Z,97.57
2023-04-16T07:12:08.433Z,97.38
2023-04-16T07:14:36.849Z,96.37
2023-04-16T07:17:05.222Z,95.91
2023-04-16T07:19:33.572Z,96.17
2023-04-16T07:22:02.108Z,95.68
2023-04-16T07:24:30.689Z,95.63
2023-04-16T07:26:59.038Z,95.58
2023-04-16T07:29:27.422Z,95.48
2023-04-16T07:31:55.898Z,95.25
2023-04-16T07:34:24.358Z,94.96
2023-04-16T07:36:52.689Z,94.86
2023-04-16T07:39:21.176Z,94.83
2023-04-16T07:41:49.667Z,94.96
2023-04-16T07:44:18.128Z,94.40
2023-04-16T07:46:47.623Z,94.13
2023-04-16T07:49:16.392Z,94.21
2023-04-16T07:51:45.373Z,94.48
2023-04-16T07:54:13.831Z,94.01
2023-04-16T07:56:42.224Z,93.44
2023-04-16T07:59:21.655Z,93.41
2023-04-16T08:01:54.294Z,93.35
2023-04-16T08:04:25.450Z,93.36
2023-04-16T08:06:54.660Z,93.17
2023-04-16T08:09:27.446Z,92.97
2023-04-16T08:11:55.899Z,92.70
2023-04-16T08:14:24.310Z,92.71
2023-04-16T08:16:53.146Z,93.06
2023-04-16T08:19:21.534Z,92.99
2023-04-16T08:21:50.548Z,92.71
2023-04-16T08:24:18.985Z,92.87
2023-04-16T08:26:47.406Z,92.68
2023-04-16T08:29:15.930Z,92.30
2023-04-16T08:31:44.681Z,92.44
2023-04-16T08:34:13.970Z,92.54
2023-04-16T08:36:42.439Z,92.45
2023-04-16T08:39:10.879Z,92.22
2023-04-16T08:41:46.231Z,92.27
2023-04-16T08:44:29.074Z,92.22
2023-04-16T08:47:01.900Z,91.50
2023-04-16T08:49:36.601Z,90.95
2023-04-16T08:52:12.730Z,91.28
2023-04-16T08:54:56.738Z,91.59
2023-04-16T08:58:00.143Z,91.65
2023-04-16T09:00:31.613Z,91.30
2023-04-16T09:03:00.649Z,90.54
2023-04-16T09:05:29.506Z,89.62
2023-04-16T09:07:57.846Z,89.33
2023-04-16T09:10:27.523Z,89.29
2023-04-16T09:12:57.129Z,88.90
2023-04-16T09:15:25.920Z,88.44
2023-04-16T09:17:56.497Z,89.11
2023-04-16T09:20:24.980Z,89.24
2023-04-16T09:22:53.426Z,89.88
2023-04-16T09:25:22.886Z,89.91
2023-04-16T09:27:51.526Z,89.15
2023-04-16T09:30:26.077Z,89.16
2023-04-16T09:33:16.729Z,87.95
2023-04-16T09:35:47.926Z,85.64
2023-04-16T09:38:17.053Z,84.67
2023-04-16T09:40:47.659Z,83.79
2023-04-16T09:43:18.944Z,82.45
2023-04-16T09:45:51.509Z,81.43
2023-04-16T09:48:31.555Z,80.90
2023-04-16T09:51:02.264Z,80.53
2023-04-16T09:53:32.783Z,80.62
2023-04-16T09:56:04.887Z,80.55
2023-04-16T09:58:36.315Z,79.89
2023-04-16T10:01:12.622Z,80.53
2023-04-16T10:03:41.396Z,80.50
2023-04-16T10:06:22.099Z,80.09
2023-04-16T10:08:54.021Z,78.65
2023-04-16T10:11:23.128Z,77.75
2023-04-16T10:13:51.991Z,77.70
2023-04-16T10:16:22.867Z,77.84
2023-04-16T10:18:51.923Z,77.66
2023-04-16T10:21:21.572Z,76.87
2023-04-16T10:23:52.126Z,75.75
2023-04-16T10:26:21.697Z,75.37
2023-04-16T10:28:50.243Z,75.38
2023-04-16T10:31:18.682Z,75.38
2023-04-16T10:33:47.934Z,75.17
2023-04-16T10:36:23.852Z,74.75
2023-04-16T10:38:56.713Z,75.42
2023-04-16T10:41:27.269Z,75.28
2023-04-16T10:44:06.722Z,74.62
2023-04-16T10:46:44.084Z,74.19
2023-04-16T10:49:23.707Z,74.84
2023-04-16T10:51:59.700Z,74.55
2023-04-16T10:54:28.727Z,73.95
2023-04-16T10:57:04.276Z,73.20
2023-04-16T10:59:36.817Z,72.45
2023-04-16T11:02:17.829Z,72.01
2023-04-16T11:04:49.835Z,71.63
2023-04-16T11:07:35.345Z,71.23
2023-04-16T11:10:05.815Z,70.36
2023-04-16T11:12:42.955Z,70.12
2023-04-16T11:15:21.673Z,69.81
2023-04-16T11:17:54.630Z,68.34
2023-04-16T11:20:26.039Z,67.58
2023-04-16T11:22:57.375Z,67.25
2023-04-16T11:25:34.087Z,66.76
2023-04-16T11:28:02.967Z,66.56
2023-04-16T11:30:34.296Z,66.64
2023-04-16T11:33:08.655Z,66.35
2023-04-16T11:35:41.504Z,66.47
2023-04-16T11:38:10.067Z,66.69
2023-04-16T11:40:38.392Z,66.75
2023-04-16T11:43:17.090Z,66.88
2023-04-16T11:46:10.296Z,66.95
2023-04-16T11:48:56.200Z,67.17
2023-04-16T11:51:24.780Z,66.52
2023-04-16T11:53:55.159Z,66.65
2023-04-16T11:56:32.394Z,67.46
2023-04-16T11:59:15.970Z,67.48
2023-04-16T12:01:51.062Z,67.46
2023-04-16T12:04:22.471Z,67.36
2023-04-16T12:07:16.618Z,67.58
2023-04-16T12:09:45.005Z,67.72
2023-04-16T12:12:27.681Z,67.41
2023-04-16T12:14:59.652Z,67.04
2023-04-16T12:17:28.003Z,67.37
2023-04-16T12:20:02.149Z,67.37
2023-04-16T12:22:32.410Z,66.90
2023-04-16T12:25:13.492Z,66.82
2023-04-16T12:27:54.204Z,66.59
2023-04-16T12:30:24.543Z,66.23
2023-04-16T12:33:19.382Z,66.17
2023-04-16T12:35:49.714Z,66.24
2023-04-16T12:38:19.171Z,66.21
2023-04-16T12:40:47.559Z,66.16
2023-04-16T12:43:16.801Z,66.17
2023-04-16T12:45:45.323Z,66.18
2023-04-16T12:48:13.871Z,66.15
2023-04-16T12:50:44.366Z,65.88
2023-04-16T12:53:13.031Z,65.84
2023-04-16T12:55:41.568Z,65.90
2023-04-16T12:58:12.312Z,65.61
2023-04-16T13:00:41.171Z,65.50
2023-04-16T13:03:09.685Z,65.39
2023-04-16T13:05:38.080Z,65.27
2023-04-16T13:08:06.713Z,65.60
2023-04-16T13:10:36.018Z,65.40
2023-04-16T13:13:04.406Z,65.40
2023-04-16T13:15:32.821Z,65.34
2023-04-16T13:18:01.170Z,65.36
2023-04-16T13:20:29.600Z,65.31
2023-04-16T13:22:58.453Z,65.23
2023-04-16T13:25:26.758Z,65.39
2023-04-16T13:27:55.050Z,64.95
2023-04-16T13:30:23.385Z,64.91
2023-04-16T13:32:51.803Z,64.68
2023-04-16T13:35:20.314Z,64.51
2023-04-16T13:37:48.652Z,64.63
2023-04-16T13:40:16.962Z,64.43
2023-04-16T13:42:45.276Z,64.40
2023-04-16T13:45:13.602Z,64.56
2023-04-16T13:47:42.509Z,64.33
2023-04-16T13:50:11.092Z,64.80
2023-04-16T13:52:39.472Z,65.17
2023-04-16T13:55:09.741Z,65.01
2023-04-16T13:57:38.118Z,64.65
2023-04-16T14:00:11.887Z,64.51
2023-04-16T14:02:43.021Z,63.92
2023-04-16T14:05:11.954Z,63.03
2023-04-16T14:07:40.367Z,62.07
2023-04-16T14:10:09.575Z,60.50
2023-04-16T14:12:39.170Z,59.90
2023-04-16T14:22:40.215Z,57.74
2023-04-16T14:25:08.909Z,57.52
2023-04-16T14:27:37.289Z,57.45
2023-04-16T14:30:06.973Z,57.00
2023-04-16T14:32:36.343Z,55.66
2023-04-16T14:35:05.681Z,55.68
2023-04-16T14:37:36.290Z,54.47
2023-04-16T14:40:08.756Z,53.87
2023-04-16T14:42:37.292Z,54.05
2023-04-16T14:45:06.842Z,53.95
2023-04-16T14:47:36.861Z,53.74
2023-04-16T14:50:06.528Z,53.75
2023-04-16T14:52:34.904Z,53.38
2023-04-16T14:55:03.633Z,52.81
2023-04-16T14:57:33.388Z,51.76
2023-04-16T15:00:02.283Z,51.32
2023-04-16T15:02:31.028Z,51.28
2023-04-16T15:05:00.246Z,50.40
2023-04-16T15:07:28.633Z,50.06
2023-04-16T15:09:57.022Z,50.05
2023-04-16T15:12:26.839Z,48.81
2023-04-16T15:15:15.646Z,48.28
2023-04-16T15:17:44.155Z,48.07
2023-04-16T15:20:12.936Z,48.18
2023-04-16T15:22:41.383Z,48.18
2023-04-16T15:25:10.117Z,48.19
2023-04-16T15:27:38.665Z,47.20
2023-04-16T15:30:08.144Z,46.75
2023-04-16T15:32:36.617Z,46.74
2023-04-16T15:35:06.515Z,47.30
2023-04-16T15:37:34.970Z,46.73
2023-04-16T15:40:05.689Z,46.33
2023-04-16T15:42:34.637Z,46.35
2023-04-16T15:45:03.180Z,46.23
2023-04-16T15:47:31.588Z,45.88
2023-04-16T15:50:00.056Z,45.39
2023-04-16T15:52:28.546Z,45.09
2023-04-16T15:54:56.947Z,45.05
2023-04-16T15:57:25.427Z,45.14
2023-04-16T16:00:06.631Z,45.52
2023-04-16T16:02:36.229Z,45.75
2023-04-16T16:05:07.617Z,45.47
2023-04-16T16:07:36.310Z,45.89
2023-04-16T16:10:06.598Z,46.07
2023-04-16T16:12:35.000Z,46.13
2023-04-16T16:15:04.741Z,45.89
2023-04-16T16:17:33.590Z,45.74
2023-04-16T16:20:02.036Z,45.56
2023-04-16T16:22:30.607Z,45.75
2023-04-16T16:24:59.025Z,45.57
2023-04-16T16:27:27.399Z,45.73
2023-04-16T16:29:55.839Z,45.78
2023-04-16T16:32:24.289Z,45.90
2023-04-16T16:34:52.693Z,46.25
2023-04-16T16:37:21.241Z,46.40
2023-04-16T16:39:49.921Z,46.57
2023-04-16T16:42:18.965Z,46.75
2023-04-16T16:44:48.919Z,47.04
2023-04-16T16:47:17.603Z,47.40
2023-04-16T16:49:46.152Z,47.85
2023-04-16T16:52:14.528Z,48.29
2023-04-16T16:54:42.889Z,48.86
2023-04-16T16:57:12.522Z,49.17
2023-04-16T16:59:40.918Z,49.56
2023-04-16T17:02:09.500Z,49.98
2023-04-16T17:04:38.207Z,50.42
2023-04-16T17:07:06.883Z,50.65
2023-04-16T17:09:35.626Z,51.17
2023-04-16T17:12:05.094Z,51.88
2023-04-16T17:14:33.802Z,52.53
2023-04-16T17:17:02.298Z,53.40
2023-04-16T17:19:31.040Z,54.17
2023-04-16T17:21:59.454Z,54.42
2023-04-16T17:24:27.828Z,54.78
2023-04-16T17:26:56.498Z,55.37
2023-04-16T17:29:26.309Z,56.05
2023-04-16T17:31:54.787Z,56.83
2023-04-16T17:34:23.942Z,56.89
2023-04-16T17:52:32.932Z,61.25
2023-04-16T17:55:01.742Z,61.87
2023-04-16T17:57:31.485Z,62.66
2023-04-16T18:00:00.355Z,63.13
2023-04-16T18:02:28.908Z,63.42
2023-04-16T18:04:58.844Z,63.84
2023-04-16T18:07:27.629Z,64.45
2023-04-16T18:09:56.458Z,65.06
2023-04-16T18:12:24.889Z,65.66
2023-04-16T18:14:53.239Z,66.53
2023-04-16T18:17:24.280Z,67.45
2023-04-16T18:19:52.637Z,67.54
2023-04-16T18:22:21.071Z,67.61
2023-04-16T18:24:49.676Z,67.91
2023-04-16T18:27:18.199Z,68.19
2023-04-16T18:29:46.593Z,68.45
2023-04-16T18:32:15.002Z,68.64
2023-04-16T18:34:44.324Z,68.94
2023-04-16T18:37:12.696Z,69.12
2023-04-16T18:39:41.816Z,69.40
2023-04-16T18:42:10.105Z,69.54
2023-04-16T18:44:38.450Z,69.92
2023-04-16T18:47:06.748Z,70.12
2023-04-16T18:49:35.453Z,70.39
2023-04-16T18:52:03.875Z,70.60
2023-04-16T18:54:32.248Z,70.73
2023-04-16T18:57:02.103Z,70.86
2023-04-16T18:59:30.593Z,71.06
2023-04-16T19:01:59.061Z,71.29
2023-04-16T19:04:27.518Z,71.38
2023-04-16T19:06:55.986Z,71.46
2023-04-16T19:09:26.705Z,71.69
2023-04-16T19:11:55.029Z,71.94
2023-04-16T19:14:23.392Z,72.27
2023-04-16T19:16:51.698Z,72.36
2023-04-16T19:19:20.096Z,72.49
2023-04-16T19:21:49.687Z,72.75
2023-04-16T19:24:18.901Z,73.04
2023-04-16T19:26:47.222Z,73.35
2023-04-16T19:29:15.974Z,73.61
2023-04-16T19:31:47.046Z,73.83
2023-04-16T19:34:15.888Z,74.08
2023-04-16T19:36:45.338Z,74.22
2023-04-16T19:39:13.735Z,74.48
2023-04-16T19:41:42.258Z,74.70
2023-04-16T19:44:11.141Z,75.09
2023-04-16T19:46:39.447Z,75.45
2023-04-16T19:49:08.407Z,75.72
2023-04-16T19:51:36.945Z,76.08
2023-04-16T19:54:05.822Z,76.33
2023-04-16T19:56:34.100Z,76.73
2023-04-16T19:59:02.665Z,77.05
2023-04-16T20:01:31.338Z,77.17
2023-04-16T20:03:59.873Z,77.62
2023-04-16T20:06:28.233Z,78.01
2023-04-16T20:08:57.471Z,78.37
2023-04-16T20:11:26.080Z,78.62
2023-04-16T20:13:54.593Z,79.20
2023-04-16T20:16:23.316Z,79.42
2023-04-16T20:18:54.406Z,79.61
2023-04-16T20:21:23.090Z,79.85
2023-04-16T20:23:51.402Z,80.08
2023-04-16T20:26:19.777Z,80.26
2023-04-16T20:28:48.052Z,80.58
2023-04-16T20:31:16.618Z,80.80
2023-04-16T20:33:44.985Z,80.98
2023-04-16T20:36:13.542Z,81.20
2023-04-16T20:38:43.710Z,81.45
2023-04-16T20:41:14.707Z,81.45
2023-04-16T20:43:43.906Z,81.64
2023-04-16T20:46:12.725Z,81.70
2023-04-16T20:48:41.232Z,81.74
2023-04-16T21:00:14.020Z,82.90
2023-04-16T21:02:43.600Z,83.02
2023-04-16T21:05:14.656Z,83.26
2023-04-16T21:07:43.587Z,83.52
2023-04-16T21:10:12.024Z,83.79
2023-04-16T21:12:40.457Z,83.99
2023-04-16T21:15:09.356Z,84.10
2023-04-16T21:17:37.728Z,84.25
2023-04-16T21:20:10.766Z,84.40
2023-04-16T21:22:39.098Z,84.46
2023-04-16T21:25:08.506Z,84.80
2023-04-16T21:27:37.012Z,84.83
2023-04-16T21:30:06.084Z,85.04
2023-04-16T21:32:34.382Z,85.28
2023-04-16T21:35:02.801Z,85.51
2023-04-16T21:37:31.133Z,85.77
2023-04-16T21:40:00.040Z,85.92
2023-04-16T21:42:28.441Z,86.16
2023-04-16T21:44:57.027Z,86.28
2023-04-16T21:47:25.562Z,86.38
2023-04-16T21:49:54.178Z,86.54
2023-04-16T21:52:22.617Z,86.52
2023-04-16T21:54:51.171Z,86.77
2023-04-16T21:57:19.520Z,86.82
2023-04-16T21:59:47.841Z,86.90
2023-04-16T22:02:16.429Z,86.86
2023-04-16T22:04:44.949Z,87.17
2023-04-16T22:07:13.338Z,87.24
2023-04-16T22:09:41.888Z,87.30
2023-04-16T22:12:10.613Z,87.58
2023-04-16T22:14:44.033Z,87.85
2023-04-16T22:17:17.164Z,88.04
2023-04-16T22:19:45.580Z,87.95
2023-04-16T22:22:13.936Z,88.09
2023-04-16T22:24:42.483Z,88.13
2023-04-16T22:27:10.866Z,88.19
2023-04-16T22:29:39.224Z,88.39
2023-04-16T22:32:07.604Z,88.52
2023-04-16T22:34:36.261Z,88.57
2023-04-16T22:37:05.176Z,88.68
2023-04-16T22:39:34.704Z,88.70
2023-04-16T22:42:03.297Z,88.92
2023-04-16T22:44:31.692Z,88.96
2023-04-16T22:47:00.066Z,89.16
2023-04-16T22:49:33.307Z,89.41
2023-04-16T22:52:02.750Z,89.42
2023-04-16T22:54:31.922Z,89.49
2023-04-16T22:57:00.992Z,89.50
2023-04-16T22:59:29.393Z,89.71
2023-04-16T23:01:58.080Z,89.78
2023-04-16T23:04:26.626Z,89.77
2023-04-16T23:06:55.143Z,90.12
2023-04-16T23:09:23.578Z,90.10
2023-04-16T23:11:51.977Z,90.22
2023-04-16T23:14:21.402Z,90.38
2023-04-16T23:16:49.705Z,90.59
2023-04-16T23:19:18.185Z,90.69
2023-04-16T23:21:46.455Z,90.67
2023-04-16T23:24:14.952Z,90.73
2023-04-16T23:26:43.376Z,90.92
2023-04-16T23:29:11.725Z,91.33
2023-04-16T23:31:40.305Z,91.33
2023-04-16T23:34:08.701Z,91.50
2023-04-16T23:36:37.116Z,91.67
2023-04-16T23:39:05.543Z,91.76
2023-04-16T23:41:34.731Z,91.74
2023-04-16T23:44:03.169Z,91.95
2023-04-16T23:46:31.651Z,92.07
2023-04-16T23:49:00.161Z,92.18
2023-04-16T23:51:28.470Z,92.18
2023-04-16T23:53:56.893Z,92.33
2023-04-16T23:56:25.486Z,92.31
2023-04-16T23:58:53.834Z,92.47
